createdAt,value
2023-05-01T00:00:31.670Z,10.89
2023-05-01T00:02:58.016Z,10.85
2023-05-01T00:05:24.448Z,10.74
2023-05-01T00:07:50.716Z,10.79
2023-05-01T00:10:16.982Z,10.89
2023-05-01T00:12:43.248Z,10.90
2023-05-01T00:15:09.511Z,10.89
2023-05-01T00:17:35.809Z,10.87
2023-05-01T00:20:02.108Z,10.84
2023-05-01T00:22:28.340Z,10.85
2023-05-01T00:24:54.602Z,10.93
2023-05-01T00:27:20.844Z,10.94
2023-05-01T00:29:47.100Z,10.97
2023-05-01T00:32:13.414Z,10.99
2023-05-01T00:34:39.689Z,10.87
2023-05-01T00:37:05.976Z,10.90
2023-05-01T00:39:32.257Z,10.96
2023-05-01T00:41:58.515Z,10.91
2023-05-01T00:44:24.776Z,10.91
2023-05-01T00:46:51.029Z,10.88
2023-05-01T00:49:17.324Z,10.86
2023-05-01T00:51:43.556Z,10.84
2023-05-01T00:54:09.808Z,10.78
2023-05-01T00:56:36.040Z,10.75
2023-05-01T00:59:02.316Z,10.71
2023-05-01T01:01:28.658Z,10.72
2023-05-01T01:03:55.035Z,10.70
2023-05-01T01:06:21.399Z,10.64
2023-05-01T01:08:47.726Z,10.64
2023-05-01T01:11:14.025Z,10.66
2023-05-01T01:13:40.305Z,10.69
2023-05-01T01:16:06.620Z,10.73
2023-05-01T01:18:32.926Z,10.67
2023-05-01T01:20:59.242Z,10.59
2023-05-01T01:23:25.535Z,10.60
2023-05-01T01:25:51.775Z,10.63
2023-05-01T01:28:18.103Z,10.52
2023-05-01T01:30:44.400Z,10.41
2023-05-01T01:33:10.759Z,10.37
2023-05-01T01:35:37.007Z,10.29
2023-05-01T01:38:03.342Z,10.19
2023-05-01T01:40:29.671Z,10.20
2023-05-01T01:42:56.002Z,10.20
2023-05-01T01:45:22.260Z,10.15
2023-05-01T01:47:48.584Z,10.02
2023-05-01T01:50:14.910Z,9.96
2023-05-01T01:52:41.550Z,9.93
2023-05-01T01:55:07.829Z,9.91
2023-05-01T01:57:34.144Z,9.78
2023-05-01T02:00:00.439Z,9.81
2023-05-01T02:02:26.883Z,9.81
2023-05-01T02:04:53.322Z,9.80
2023-05-01T02:07:19.636Z,9.72
2023-05-01T02:09:45.907Z,9.57
2023-05-01T02:12:12.162Z,9.57
2023-05-01T02:14:38.481Z,9.51
2023-05-01T02:17:04.764Z,9.50
2023-05-01T02:19:31.044Z,9.47
2023-05-01T02:21:57.334Z,9.48
2023-05-01T02:24:23.572Z,9.38
2023-05-01T02:26:49.883Z,9.40
2023-05-01T02:29:16.154Z,9.27
2023-05-01T02:31:42.506Z,9.29
2023-05-01T02:34:08.812Z,9.17
2023-05-01T02:36:35.071Z,9.18
2023-05-01T02:39:01.339Z,9.13
2023-05-01T02:41:27.593Z,9.14
2023-05-01T02:43:53.860Z,9.16
2023-05-01T02:46:20.173Z,9.13
2023-05-01T02:48:46.486Z,9.09
2023-05-01T02:51:12.751Z,9.03
2023-05-01T02:53:39.159Z,9.03
2023-05-01T02:56:05.449Z,9.01
2023-05-01T02:58:31.815Z,9.00
2023-05-01T03:00:58.156Z,9.04
2023-05-01T03:03:24.564Z,9.05
2023-05-01T03:05:50.856Z,8.93
2023-05-01T03:08:17.182Z,8.91
2023-05-01T03:10:43.489Z,8.88
2023-05-01T03:13:09.756Z,8.89
2023-05-01T03:15:36.052Z,8.86
2023-05-01T03:18:02.378Z,8.87
2023-05-01T03:20:28.765Z,8.99
2023-05-01T03:22:55.070Z,9.07
2023-05-01T03:25:21.354Z,9.11
2023-05-01T03:27:47.729Z,9.17
2023-05-01T03:30:14.029Z,9.21
2023-05-01T03:32:40.435Z,9.23
2023-05-01T03:35:06.772Z,9.22
2023-05-01T03:37:33.124Z,9.17
2023-05-01T03:39:59.460Z,9.10
2023-05-01T03:42:25.745Z,9.10
2023-05-01T03:44:52.038Z,9.16
2023-05-01T03:47:18.313Z,9.23
2023-05-01T03:49:44.586Z,9.14
2023-05-01T03:52:10.906Z,9.13
2023-05-01T03:54:37.190Z,9.09
2023-05-01T03:57:03.469Z,9.07
2023-05-01T03:59:29.769Z,9.04
2023-05-01T04:01:56.201Z,9.08
2023-05-01T04:04:22.527Z,9.08
2023-05-01T04:06:48.903Z,9.02
2023-05-01T04:09:15.188Z,9.03
2023-05-01T04:11:41.503Z,8.96
2023-05-01T04:14:07.813Z,9.01
2023-05-01T04:16:34.253Z,8.98
2023-05-01T04:19:00.676Z,8.93
2023-05-01T04:21:26.990Z,8.96
2023-05-01T04:23:53.234Z,8.92
2023-05-01T04:26:19.532Z,8.96
2023-05-01T04:28:45.765Z,9.00
2023-05-01T04:31:12.085Z,9.03
2023-05-01T04:33:38.435Z,8.93
2023-05-01T04:36:04.688Z,8.88
2023-05-01T04:38:30.966Z,8.88
2023-05-01T04:40:57.194Z,8.90
2023-05-01T04:43:23.480Z,8.86
2023-05-01T04:45:49.773Z,8.84
2023-05-01T04:48:16.080Z,8.95
2023-05-01T04:50:42.392Z,8.98
2023-05-01T04:53:08.658Z,9.04
2023-05-01T04:55:35.028Z,9.02
2023-05-01T04:58:01.378Z,9.02
2023-05-01T05:00:27.616Z,8.91
2023-05-01T05:02:53.933Z,8.91
2023-05-01T05:05:20.269Z,8.92
2023-05-01T05:07:46.612Z,9.00
2023-05-01T05:10:12.964Z,9.02
2023-05-01T05:12:39.212Z,9.02
2023-05-01T05:15:05.517Z,9.05
2023-05-01T05:17:31.814Z,9.10
2023-05-01T05:19:58.166Z,9.09
2023-05-01T05:22:24.683Z,9.11
2023-05-01T05:24:50.960Z,9.00
2023-05-01T05:27:17.204Z,9.04
2023-05-01T05:29:43.446Z,9.13
2023-05-01T05:32:09.734Z,9.14
2023-05-01T05:34:35.992Z,9.16
2023-05-01T05:37:02.237Z,9.17
2023-05-01T05:39:28.463Z,9.24
2023-05-01T05:41:54.751Z,9.17
2023-05-01T05:44:21.053Z,9.17
2023-05-01T05:46:47.281Z,9.18
2023-05-01T05:49:13.531Z,9.21
2023-05-01T05:51:39.834Z,9.09
2023-05-01T05:54:06.143Z,9.04
2023-05-01T05:56:32.452Z,9.12
2023-05-01T05:58:58.690Z,9.14
2023-05-01T06:01:24.963Z,9.05
2023-05-01T06:03:51.266Z,8.90
2023-05-01T06:06:18.647Z,8.93
2023-05-01T06:08:46.486Z,8.99
2023-05-01T06:11:12.744Z,8.92
2023-05-01T06:13:39.002Z,9.02
2023-05-01T06:16:05.403Z,9.02
2023-05-01T06:18:31.834Z,9.10
2023-05-01T06:20:58.112Z,9.15
2023-05-01T06:23:24.362Z,9.27
2023-05-01T06:25:50.709Z,9.34
2023-05-01T06:28:16.972Z,9.36
2023-05-01T06:30:43.231Z,9.52
2023-05-01T06:33:09.737Z,9.66
2023-05-01T06:35:36.091Z,9.78
2023-05-01T06:38:02.373Z,9.88
2023-05-01T06:40:28.767Z,9.96
2023-05-01T06:42:55.158Z,10.06
2023-05-01T06:45:21.447Z,10.13
2023-05-01T06:47:47.767Z,10.21
2023-05-01T06:50:14.063Z,10.22
2023-05-01T06:52:40.334Z,10.19
2023-05-01T06:55:06.570Z,10.26
2023-05-01T06:57:32.884Z,10.25
2023-05-01T06:59:59.305Z,10.29
2023-05-01T07:02:25.812Z,10.34
2023-05-01T07:04:52.106Z,10.40
2023-05-01T07:07:18.328Z,10.49
2023-05-01T07:09:44.646Z,10.48
2023-05-01T07:12:10.888Z,10.52
2023-05-01T07:14:37.154Z,10.70
2023-05-01T07:17:03.709Z,10.77
2023-05-01T07:19:30.221Z,10.87
2023-05-01T07:21:56.653Z,10.97
2023-05-01T07:24:23.105Z,11.07
2023-05-01T07:26:49.368Z,11.08
2023-05-01T07:29:15.659Z,11.09
2023-05-01T07:31:41.995Z,11.04
2023-05-01T07:34:08.256Z,11.02
2023-05-01T07:36:34.491Z,10.94
2023-05-01T07:39:00.732Z,10.87
2023-05-01T07:41:26.998Z,10.61
2023-05-01T07:43:53.248Z,10.58
2023-05-01T07:46:19.601Z,10.61
2023-05-01T07:48:46.353Z,10.50
2023-05-01T07:51:12.621Z,10.51
2023-05-01T07:53:38.952Z,10.49
2023-05-01T07:56:05.271Z,10.39
2023-05-01T07:58:31.492Z,10.37
2023-05-01T08:00:57.771Z,10.24
2023-05-01T08:03:24.111Z,10.21
2023-05-01T08:05:50.583Z,10.13
2023-05-01T08:08:16.833Z,10.17
2023-05-01T08:10:43.096Z,10.10
2023-05-01T08:13:09.406Z,10.06
2023-05-01T08:15:35.715Z,10.03
2023-05-01T08:18:01.994Z,10.07
2023-05-01T08:20:28.353Z,10.01
2023-05-01T08:22:54.611Z,10.06
2023-05-01T08:25:20.871Z,10.05
2023-05-01T08:27:47.115Z,10.05
2023-05-01T08:30:13.407Z,10.12
2023-05-01T08:32:39.732Z,10.15
2023-05-01T08:35:06.045Z,10.11
2023-05-01T08:37:32.408Z,10.10
2023-05-01T08:39:58.799Z,10.13
2023-05-01T08:42:25.177Z,10.21
2023-05-01T08:44:51.475Z,10.26
2023-05-01T08:47:17.781Z,10.28
2023-05-01T08:49:46.793Z,10.27
2023-05-01T08:52:13.113Z,10.20
2023-05-01T08:54:39.391Z,10.20
2023-05-01T08:57:05.961Z,10.23
2023-05-01T08:59:32.288Z,10.27
2023-05-01T09:01:58.639Z,10.24
2023-05-01T09:04:25.042Z,10.26
2023-05-01T09:06:51.373Z,10.14
2023-05-01T09:09:17.683Z,10.18
2023-05-01T09:11:43.950Z,10.11
2023-05-01T09:14:10.179Z,10.09
2023-05-01T09:16:36.474Z,10.01
2023-05-01T09:19:02.747Z,9.97
2023-05-01T09:21:29.027Z,10.00
2023-05-01T09:23:55.323Z,9.96
2023-05-01T09:26:21.588Z,9.87
2023-05-01T09:28:47.836Z,9.89
2023-05-01T09:31:14.090Z,9.92
2023-05-01T09:33:40.368Z,9.95
2023-05-01T09:36:06.618Z,9.95
2023-05-01T09:38:32.900Z,9.87
2023-05-01T09:40:59.182Z,9.91
2023-05-01T09:43:25.440Z,9.92
2023-05-01T09:45:51.728Z,9.92
2023-05-01T09:48:17.997Z,9.99
2023-05-01T09:50:44.269Z,10.00
2023-05-01T09:53:10.510Z,10.00
2023-05-01T09:55:36.798Z,10.08
2023-05-01T09:58:03.011Z,10.13
2023-05-01T10:00:29.232Z,10.21
2023-05-01T10:02:55.641Z,10.27
2023-05-01T10:05:22.142Z,10.25
2023-05-01T10:07:49.489Z,10.22
2023-05-01T10:10:15.747Z,10.20
2023-05-01T10:12:41.970Z,10.18
2023-05-01T10:15:17.626Z,10.11
2023-05-01T10:17:50.706Z,10.10
2023-05-01T10:20:17.044Z,10.04
2023-05-01T10:22:43.376Z,9.92
2023-05-01T10:25:09.690Z,10.01
2023-05-01T10:27:35.964Z,10.10
2023-05-01T10:30:02.215Z,10.09
2023-05-01T10:32:28.509Z,9.98
2023-05-01T10:34:54.873Z,10.08
2023-05-01T10:37:21.292Z,10.03
2023-05-01T10:39:47.559Z,10.08
2023-05-01T10:42:13.876Z,10.11
2023-05-01T10:44:40.121Z,10.13
2023-05-01T10:47:06.345Z,10.22
2023-05-01T10:49:32.766Z,10.27
2023-05-01T10:51:59.013Z,10.25
2023-05-01T10:54:25.284Z,10.27
2023-05-01T10:56:51.561Z,10.29
2023-05-01T10:59:17.802Z,10.33
2023-05-01T11:01:44.068Z,10.51
2023-05-01T11:04:10.321Z,10.62
2023-05-01T11:06:36.774Z,10.70
2023-05-01T11:09:03.168Z,10.80
2023-05-01T11:11:29.429Z,10.88
2023-05-01T11:13:55.722Z,10.74
2023-05-01T11:16:22.080Z,10.77
2023-05-01T11:18:48.415Z,10.86
2023-05-01T11:21:14.660Z,10.71
2023-05-01T11:23:40.893Z,10.71
2023-05-01T11:26:07.137Z,10.77
2023-05-01T11:28:33.366Z,10.83
2023-05-01T11:30:59.605Z,10.74
2023-05-01T11:33:25.928Z,10.64
2023-05-01T11:35:52.304Z,10.61
2023-05-01T11:38:18.540Z,10.68
2023-05-01T11:40:44.810Z,10.77
2023-05-01T11:43:11.158Z,10.95
2023-05-01T11:45:37.705Z,11.13
2023-05-01T11:48:05.104Z,11.17
2023-05-01T11:50:32.785Z,11.31
2023-05-01T11:52:59.035Z,11.21
2023-05-01T11:55:25.290Z,11.30
2023-05-01T11:57:51.633Z,11.38
2023-05-01T12:00:17.897Z,11.45
2023-05-01T12:02:44.195Z,11.39
2023-05-01T12:05:10.618Z,11.52
2023-05-01T12:07:36.841Z,11.56
2023-05-01T12:10:03.156Z,11.49
2023-05-01T12:12:29.430Z,11.29
2023-05-01T12:14:56.044Z,11.13
2023-05-01T12:17:22.806Z,11.03
2023-05-01T12:19:49.150Z,10.84
2023-05-01T12:22:15.428Z,10.79
2023-05-01T12:24:41.722Z,10.94
2023-05-01T12:27:07.960Z,11.05
2023-05-01T12:29:34.250Z,11.31
2023-05-01T12:32:00.576Z,11.43
2023-05-01T12:34:26.825Z,11.59
2023-05-01T12:36:53.177Z,11.52
2023-05-01T12:39:19.425Z,11.49
2023-05-01T12:41:45.691Z,11.50
2023-05-01T12:44:12.116Z,11.45
2023-05-01T12:46:38.820Z,11.29
2023-05-01T12:49:05.152Z,11.42
2023-05-01T12:51:31.410Z,11.53
2023-05-01T12:53:57.677Z,11.41
2023-05-01T12:56:23.971Z,11.36
2023-05-01T12:58:50.317Z,11.53
2023-05-01T13:01:16.628Z,11.56
2023-05-01T13:03:43.020Z,11.49
2023-05-01T13:06:09.385Z,11.50
2023-05-01T13:08:35.968Z,11.35
2023-05-01T13:11:02.228Z,11.37
2023-05-01T13:13:28.546Z,11.28
2023-05-01T13:15:54.824Z,11.39
2023-05-01T13:18:21.126Z,11.33
2023-05-01T13:20:47.482Z,11.47
2023-05-01T13:23:13.752Z,11.37
2023-05-01T13:25:40.021Z,11.29
2023-05-01T13:28:06.288Z,11.19
2023-05-01T13:30:32.547Z,11.17
2023-05-01T13:32:58.960Z,11.10
2023-05-01T13:35:25.329Z,11.03
2023-05-01T13:37:51.586Z,11.03
2023-05-01T13:40:17.819Z,11.11
2023-05-01T13:42:44.138Z,11.32
2023-05-01T13:45:10.438Z,11.57
2023-05-01T13:47:38.962Z,11.71
2023-05-01T13:50:06.446Z,11.72
2023-05-01T13:52:32.738Z,11.50
2023-05-01T13:54:59.199Z,11.68
2023-05-01T13:57:25.646Z,11.93
2023-05-01T13:59:51.901Z,12.12
2023-05-01T14:02:18.196Z,12.31
2023-05-01T14:04:44.454Z,12.44
2023-05-01T14:07:10.728Z,12.55
2023-05-01T14:09:36.960Z,12.71
2023-05-01T14:12:03.221Z,12.81
2023-05-01T14:14:29.503Z,12.91
2023-05-01T14:16:55.789Z,12.93
2023-05-01T14:19:22.089Z,12.99
2023-05-01T14:21:48.364Z,13.06
2023-05-01T14:24:14.751Z,13.01
2023-05-01T14:26:41.005Z,13.03
2023-05-01T14:29:07.231Z,13.07
2023-05-01T14:31:33.531Z,13.09
2023-05-01T14:33:59.862Z,13.07
2023-05-01T14:36:26.130Z,13.12
2023-05-01T14:38:52.415Z,13.09
2023-05-01T14:41:18.705Z,13.12
2023-05-01T14:43:44.932Z,13.16
2023-05-01T14:46:11.251Z,13.08
2023-05-01T14:48:37.646Z,12.43
2023-05-01T14:51:03.922Z,12.34
2023-05-01T14:53:30.221Z,12.40
2023-05-01T14:55:56.551Z,12.34
2023-05-01T14:58:22.806Z,12.55
2023-05-01T15:00:49.089Z,12.68
2023-05-01T15:03:15.516Z,12.78
2023-05-01T15:05:41.980Z,12.69
2023-05-01T15:08:08.225Z,12.84
2023-05-01T15:10:34.489Z,12.82
2023-05-01T15:13:00.784Z,12.91
2023-05-01T15:15:27.016Z,12.97
2023-05-01T15:17:53.300Z,12.97
2023-05-01T15:20:19.566Z,12.99
2023-05-01T15:22:45.851Z,13.03
2023-05-01T15:25:12.101Z,13.04
2023-05-01T15:27:38.369Z,13.03
2023-05-01T15:30:04.606Z,13.02
2023-05-01T15:32:31.024Z,12.98
2023-05-01T15:34:57.484Z,12.89
2023-05-01T15:37:23.919Z,12.86
2023-05-01T15:39:50.215Z,12.85
2023-05-01T15:42:16.475Z,12.82
2023-05-01T15:44:42.711Z,12.85
2023-05-01T15:47:08.963Z,12.89
2023-05-01T15:49:35.228Z,12.94
2023-05-01T15:52:01.490Z,12.95
2023-05-01T15:54:27.792Z,12.92
2023-05-01T15:56:54.051Z,12.89
2023-05-01T15:59:20.339Z,12.86
2023-05-01T16:01:46.635Z,12.88
2023-05-01T16:04:12.969Z,12.91
2023-05-01T16:06:39.308Z,12.90
2023-05-01T16:09:05.659Z,12.95
2023-05-01T16:11:31.902Z,13.01
2023-05-01T16:13:58.149Z,13.08
2023-05-01T16:16:24.430Z,13.17
2023-05-01T16:18:50.780Z,13.19
2023-05-01T16:21:19.614Z,13.16
2023-05-01T16:23:46.165Z,13.09
2023-05-01T16:26:12.418Z,13.00
2023-05-01T16:28:38.681Z,12.96
2023-05-01T16:31:13.022Z,12.89
2023-05-01T16:33:46.106Z,12.80
2023-05-01T16:36:12.348Z,12.78
2023-05-01T16:38:38.578Z,12.73
2023-05-01T16:41:04.832Z,12.59
2023-05-01T16:43:31.092Z,12.43
2023-05-01T16:45:57.464Z,12.34
2023-05-01T16:48:23.819Z,12.34
2023-05-01T16:50:50.105Z,12.32
2023-05-01T16:53:16.400Z,11.93
2023-05-01T16:55:42.673Z,11.93
2023-05-01T16:58:08.880Z,11.66
2023-05-01T17:00:35.156Z,11.62
2023-05-01T17:03:01.461Z,11.41
2023-05-01T17:05:27.786Z,10.98
2023-05-01T17:07:54.080Z,10.65
2023-05-01T17:10:20.313Z,10.84
2023-05-01T17:12:46.608Z,11.02
2023-05-01T17:15:12.878Z,11.15
2023-05-01T17:17:39.193Z,11.25
2023-05-01T17:20:05.475Z,11.32
2023-05-01T17:22:31.723Z,11.35
2023-05-01T17:24:57.973Z,11.35
2023-05-01T17:27:24.237Z,11.30
2023-05-01T17:29:50.554Z,11.24
2023-05-01T17:32:29.586Z,11.18
2023-05-01T17:35:03.011Z,11.13
2023-05-01T17:37:29.270Z,11.08
2023-05-01T17:39:55.573Z,10.93
2023-05-01T17:42:21.845Z,10.89
2023-05-01T17:44:48.089Z,10.87
2023-05-01T17:47:14.317Z,10.86
2023-05-01T17:49:40.551Z,10.77
2023-05-01T17:52:06.804Z,10.73
2023-05-01T17:54:33.049Z,10.68
2023-05-01T17:56:59.282Z,10.59
2023-05-01T17:59:25.566Z,10.54
2023-05-01T18:01:51.968Z,10.49
2023-05-01T18:04:18.633Z,10.41
2023-05-01T18:06:45.210Z,10.40
2023-05-01T18:09:11.510Z,10.39
2023-05-01T18:11:38.894Z,10.32
2023-05-01T18:14:05.169Z,10.22
2023-05-01T18:16:31.485Z,10.18
2023-05-01T18:18:57.726Z,10.09
2023-05-01T18:21:23.953Z,10.11
2023-05-01T18:23:50.241Z,10.11
2023-05-01T18:26:16.483Z,10.16
2023-05-01T18:28:42.756Z,10.19
2023-05-01T18:31:09.047Z,10.24
2023-05-01T18:33:35.350Z,10.26
2023-05-01T18:36:01.660Z,10.30
2023-05-01T18:38:28.609Z,10.36
2023-05-01T18:40:54.932Z,10.39
2023-05-01T18:43:21.221Z,10.42
2023-05-01T18:45:47.476Z,10.49
2023-05-01T18:48:13.778Z,10.53
2023-05-01T18:50:40.073Z,10.51
2023-05-01T18:53:06.290Z,10.59
2023-05-01T18:55:32.548Z,10.56
2023-05-01T18:57:58.835Z,10.36
2023-05-01T19:00:25.088Z,10.26
2023-05-01T19:02:51.514Z,10.28
2023-05-01T19:05:18.229Z,10.22
2023-05-01T19:07:44.498Z,10.16
2023-05-01T19:10:10.740Z,10.08
2023-05-01T19:12:37.084Z,9.89
2023-05-01T19:15:03.323Z,9.90
2023-05-01T19:17:29.584Z,9.88
2023-05-01T19:19:55.990Z,9.76
2023-05-01T19:22:22.289Z,9.57
2023-05-01T19:24:48.542Z,9.47
2023-05-01T19:27:14.795Z,9.30
2023-05-01T19:29:41.064Z,9.18
2023-05-01T19:32:07.556Z,9.13
2023-05-01T19:34:33.934Z,9.04
2023-05-01T19:37:00.228Z,9.17
2023-05-01T19:39:26.518Z,9.13
2023-05-01T19:41:52.770Z,9.01
2023-05-01T19:44:19.097Z,9.02
2023-05-01T19:46:45.422Z,9.03
2023-05-01T19:49:11.671Z,9.07
2023-05-01T19:51:37.926Z,9.06
2023-05-01T19:54:04.174Z,9.06
2023-05-01T19:56:30.459Z,9.04
2023-05-01T19:58:56.764Z,9.05
2023-05-01T20:01:23.043Z,8.98
2023-05-01T20:03:49.384Z,9.03
2023-05-01T20:06:15.743Z,8.98
2023-05-01T20:08:41.982Z,9.11
2023-05-01T20:11:08.244Z,9.13
2023-05-01T20:13:34.497Z,9.05
2023-05-01T20:16:00.765Z,9.04
2023-05-01T20:18:27.034Z,8.94
2023-05-01T20:20:53.298Z,9.04
2023-05-01T20:23:19.561Z,9.14
2023-05-01T20:25:45.834Z,9.21
2023-05-01T20:28:12.096Z,9.27
2023-05-01T20:30:38.372Z,9.33
2023-05-01T20:33:04.657Z,9.39
2023-05-01T20:35:30.979Z,9.41
2023-05-01T20:37:57.232Z,9.41
2023-05-01T20:40:23.491Z,9.46
2023-05-01T20:42:49.729Z,9.52
2023-05-01T20:45:15.967Z,9.55
2023-05-01T20:47:42.230Z,9.58
2023-05-01T20:50:08.524Z,9.57
2023-05-01T20:52:34.774Z,9.49
2023-05-01T20:55:01.032Z,9.44
2023-05-01T20:57:27.267Z,9.40
2023-05-01T20:59:53.570Z,9.33
2023-05-01T21:02:19.855Z,9.35
2023-05-01T21:04:46.095Z,9.40
2023-05-01T21:07:12.328Z,9.37
2023-05-01T21:09:38.550Z,9.33
2023-05-01T21:12:04.773Z,9.28
2023-05-01T21:14:31.053Z,9.26
2023-05-01T21:16:57.330Z,9.15
2023-05-01T21:19:23.614Z,9.02
2023-05-01T21:21:49.922Z,8.97
2023-05-01T21:24:16.158Z,8.84
2023-05-01T21:26:42.421Z,8.88
2023-05-01T21:29:08.653Z,8.88
2023-05-01T21:31:35.035Z,8.93
2023-05-01T21:34:01.306Z,8.96
2023-05-01T21:36:27.541Z,8.99
2023-05-01T21:38:53.775Z,8.97
2023-05-01T21:41:20.016Z,8.94
2023-05-01T21:43:46.306Z,8.93
2023-05-01T21:46:12.569Z,8.92
2023-05-01T21:48:38.800Z,8.96
2023-05-01T21:51:05.094Z,8.90
2023-05-01T21:53:31.333Z,8.91
2023-05-01T21:55:57.574Z,8.98
2023-05-01T21:58:23.800Z,9.02
2023-05-01T22:00:50.141Z,9.06
2023-05-01T22:03:16.537Z,9.06
2023-05-01T22:05:42.893Z,9.13
2023-05-01T22:08:09.136Z,9.14
2023-05-01T22:10:35.375Z,9.10
2023-05-01T22:13:01.617Z,9.22
2023-05-01T22:15:27.845Z,9.36
2023-05-01T22:17:54.238Z,9.33
2023-05-01T22:20:20.508Z,9.36
2023-05-01T22:22:46.777Z,9.40
2023-05-01T22:25:13.051Z,9.37
2023-05-01T22:27:39.360Z,9.39
2023-05-01T22:30:05.659Z,9.24
2023-05-01T22:32:31.990Z,9.32
2023-05-01T22:34:58.307Z,9.31
2023-05-01T22:37:24.574Z,9.26
2023-05-01T22:39:50.823Z,9.38
2023-05-01T22:42:17.086Z,9.33
2023-05-01T22:44:43.338Z,9.23
2023-05-01T22:47:09.568Z,9.24
2023-05-01T22:49:35.895Z,9.27
2023-05-01T22:52:02.137Z,9.22
2023-05-01T22:54:28.383Z,9.22
2023-05-01T22:56:54.657Z,9.32
2023-05-01T22:59:20.893Z,9.18
2023-05-01T23:01:47.170Z,9.27
2023-05-01T23:04:13.526Z,9.37
2023-05-01T23:06:39.934Z,9.37
2023-05-01T23:09:06.316Z,9.24
2023-05-01T23:11:32.545Z,9.28
2023-05-01T23:13:58.803Z,9.35
2023-05-01T23:16:25.282Z,9.31
2023-05-01T23:18:51.602Z,9.28
2023-05-01T23:21:17.856Z,9.27
2023-05-01T23:23:44.113Z,9.17
2023-05-01T23:26:10.380Z,9.14
2023-05-01T23:28:36.632Z,9.11
2023-05-01T23:31:02.939Z,9.07
2023-05-01T23:33:29.191Z,9.00
2023-05-01T23:35:55.446Z,9.02
2023-05-01T23:38:21.717Z,9.07
2023-05-01T23:40:47.979Z,9.13
2023-05-01T23:43:14.223Z,9.07
2023-05-01T23:45:40.463Z,9.06
2023-05-01T23:48:06.775Z,9.06
2023-05-01T23:50:33.072Z,9.09
2023-05-01T23:52:59.313Z,9.06
2023-05-01T23:55:25.549Z,9.05
2023-05-01T23:57:51.799Z,9.01
